Time;durP1;ratioP1;P1;durP2;ratioP2;P2;SDS_P1;SDS_P2;PMS_P1;PMS_P2;Temp;Humidity;BMP_temperature;BMP_pressure;BME280_temperature;BME280_humidity;BME280_pressure;Samples;Min_cycle;Max_cycle;Signal;HPM_P1;HPM_P2
2021/01/20 00:01:54;;;;;;;11.43;5.27;;;;;;;6.61;100.00;99579.84;5009442;28;20034;-69
2021/01/20 00:04:19;;;;;;;15.20;5.90;;;;;;;6.54;100.00;99583.31;5021365;28;20673;-69
2021/01/20 00:06:44;;;;;;;9.97;4.73;;;;;;;6.60;100.00;99578.13;5022763;28;20029;-68
2021/01/20 00:09:10;;;;;;;13.27;6.63;;;;;;;6.54;100.00;99579.00;5019316;28;20046;-68
2021/01/20 00:11:35;;;;;;;14.20;5.30;;;;;;;6.49;100.00;99559.94;5012043;28;20025;-69
2021/01/20 00:14:01;;;;;;;8.47;4.17;;;;;;;6.52;100.00;99579.84;5013151;28;20125;-69
2021/01/20 00:16:26;;;;;;;13.30;5.87;;;;;;;6.52;100.00;99580.72;5013123;28;20030;-69
2021/01/20 00:18:52;;;;;;;9.70;5.27;;;;;;;6.50;100.00;99579.00;5013262;28;20034;-69
2021/01/20 00:21:17;;;;;;;9.83;4.80;;;;;;;6.54;100.00;99578.13;5020125;28;20108;-68
2021/01/20 00:23:42;;;;;;;12.50;5.73;;;;;;;6.43;100.00;99570.34;5023006;28;20113;-69
2021/01/20 00:26:08;;;;;;;14.53;6.50;;;;;;;6.47;100.00;99562.56;5012790;28;20034;-68
2021/01/20 00:28:34;;;;;;;18.13;5.73;;;;;;;6.41;100.00;99564.28;5013906;28;20030;-69
2021/01/20 00:30:59;;;;;;;10.17;5.20;;;;;;;6.43;100.00;99544.38;5015740;28;20037;-69
2021/01/20 00:33:25;;;;;;;11.40;5.77;;;;;;;6.36;100.00;99559.09;5032714;28;20030;-69
2021/01/20 00:35:50;;;;;;;13.37;6.23;;;;;;;6.37;100.00;99558.22;5030882;28;20087;-69
2021/01/20 00:38:16;;;;;;;14.57;6.10;;;;;;;6.38;100.00;99552.16;5015051;28;20037;-69
2021/01/20 00:40:42;;;;;;;10.53;5.30;;;;;;;6.44;100.00;99553.91;5013110;28;20034;-69
2021/01/20 00:43:07;;;;;;;14.20;5.73;;;;;;;6.36;100.00;99553.91;5013015;28;20034;-69
2021/01/20 00:45:32;;;;;;;15.60;6.80;;;;;;;6.36;100.00;99548.72;5011897;28;20021;-68
2021/01/20 00:47:58;;;;;;;14.00;6.37;;;;;;;6.34;100.00;99540.06;5012990;28;20030;-69
2021/01/20 00:50:23;;;;;;;11.33;5.83;;;;;;;6.34;100.00;99540.06;5012082;28;20497;-68
2021/01/20 00:52:49;;;;;;;16.67;7.10;;;;;;;6.32;100.00;99544.38;5020407;28;20032;-69
2021/01/20 00:55:15;;;;;;;17.33;7.27;;;;;;;6.30;100.00;99543.53;5016025;28;20079;-69
2021/01/20 00:57:41;;;;;;;17.43;7.40;;;;;;;6.35;100.00;99538.31;5013004;28;20060;-68
2021/01/20 01:00:07;;;;;;;13.87;7.30;;;;;;;6.29;100.00;99535.72;5015895;28;20053;-68
2021/01/20 01:02:35;;;;;;;16.50;7.20;;;;;;;6.27;100.00;99543.50;5028411;28;20059;-69
2021/01/20 01:05:01;;;;;;;15.67;7.87;;;;;;;6.29;100.00;99530.53;5014388;28;20429;-68
2021/01/20 01:07:26;;;;;;;10.83;5.60;;;;;;;6.36;100.00;99533.13;5013710;28;20026;-69
2021/01/20 01:09:51;;;;;;;10.10;4.93;;;;;;;6.34;100.00;99529.69;5011571;28;20030;-68
2021/01/20 01:12:17;;;;;;;15.90;6.83;;;;;;;6.31;100.00;99534.00;5012264;28;20030;-69
2021/01/20 01:14:42;;;;;;;16.80;7.77;;;;;;;6.28;100.00;99523.59;5011571;28;20397;-69
2021/01/20 01:17:08;;;;;;;9.10;4.67;;;;;;;6.28;100.00;99519.28;5013407;28;20064;-68
2021/01/20 01:19:33;;;;;;;15.57;7.03;;;;;;;6.27;100.00;99529.66;5014630;28;20030;-70
2021/01/20 01:21:58;;;;;;;14.80;7.10;;;;;;;6.30;100.00;99517.56;5011585;28;20030;-69
2021/01/20 01:24:24;;;;;;;14.70;7.23;;;;;;;6.27;100.00;99522.75;5012140;28;20109;-69
2021/01/20 01:26:49;;;;;;;20.00;7.80;;;;;;;6.22;100.00;99503.72;5016907;28;20029;-69
2021/01/20 01:29:14;;;;;;;15.77;6.10;;;;;;;6.21;100.00;99520.16;5022967;28;20068;-69
2021/01/20 01:31:40;;;;;;;13.17;6.03;;;;;;;6.28;100.00;99519.28;5011264;28;20033;-68
2021/01/20 01:34:05;;;;;;;11.60;5.20;;;;;;;6.28;100.00;99513.22;5017199;28;20076;-69
2021/01/20 01:36:31;;;;;;;12.60;5.70;;;;;;;6.29;100.00;99500.25;5020542;28;20099;-68
2021/01/20 01:38:56;;;;;;;11.23;5.40;;;;;;;6.29;100.00;99500.25;5011703;28;20037;-68
2021/01/20 01:41:21;;;;;;;14.53;5.27;;;;;;;6.28;100.00;99503.69;5012841;28;20040;-70
2021/01/20 01:43:47;;;;;;;10.33;4.80;;;;;;;6.24;100.00;99501.97;5011181;28;20038;-70
2021/01/20 01:46:12;;;;;;;11.57;6.10;;;;;;;6.26;100.00;99500.25;5010994;28;20037;-68
2021/01/20 01:48:38;;;;;;;16.73;6.23;;;;;;;6.31;100.00;99498.53;5011823;28;20029;-69
2021/01/20 01:51:03;;;;;;;17.13;6.50;;;;;;;6.32;100.00;99494.19;5012590;28;20424;-70
2021/01/20 01:53:29;;;;;;;11.37;4.90;;;;;;;6.34;100.00;99474.28;5011438;28;20500;-68
2021/01/20 01:55:54;;;;;;;13.93;5.70;;;;;;;6.29;100.00;99487.25;5010456;28;20108;-69
2021/01/20 01:58:20;;;;;;;15.47;6.63;;;;;;;6.24;100.00;99489.00;5016637;28;20032;-69
2021/01/20 02:00:45;;;;;;;12.37;5.60;;;;;;;6.25;100.00;99467.38;5011030;28;20037;-69
2021/01/20 02:03:11;;;;;;;10.00;5.50;;;;;;;6.28;100.00;99474.28;5011558;28;20112;-69
2021/01/20 02:05:36;;;;;;;14.90;6.60;;;;;;;6.24;100.00;99486.41;5011817;28;20561;-68
2021/01/20 02:08:06;;;;;;;11.63;4.97;;;;;;;6.32;100.00;99473.44;5020127;28;20041;-68
2021/01/20 02:10:32;;;;;;;12.00;5.30;;;;;;;6.24;100.00;99476.03;5015828;28;20030;-69
2021/01/20 02:13:19;;;;;;;11.47;4.87;;;;;;;6.31;100.00;99472.56;5011018;28;20103;-69
2021/01/20 02:15:59;;;;;;;14.93;6.20;;;;;;;6.30;100.00;99467.34;5014119;28;20040;-68
2021/01/20 02:18:27;;;;;;;13.20;6.50;;;;;;;6.32;100.00;99469.09;5029131;28;20052;-68
2021/01/20 02:21:29;;;;;;;12.83;6.00;;;;;;;6.29;100.00;99457.84;5010573;28;20710;-67
2021/01/20 02:23:58;;;;;;;12.10;5.38;;;;;;;6.31;100.00;99436.22;5010744;28;20032;-71
2021/01/20 02:26:47;;;;;;;12.63;5.80;;;;;;;6.31;100.00;99436.22;5016933;28;20106;-69
2021/01/20 02:29:18;;;;;;;10.37;4.50;;;;;;;6.34;100.00;99438.81;5011062;28;20079;-68
2021/01/20 02:31:44;;;;;;;13.23;5.40;;;;;;;6.32;100.00;99437.97;5009734;28;20049;-69
2021/01/20 02:34:13;;;;;;;12.13;5.80;;;;;;;6.32;100.00;99437.97;5010409;28;20029;-71
2021/01/20 02:36:40;;;;;;;13.60;5.53;;;;;;;6.30;100.00;99439.69;5013736;28;20307;-68
2021/01/20 02:39:06;;;;;;;8.63;4.90;;;;;;;6.27;100.00;99455.25;5015989;28;20127;-69
2021/01/20 02:41:31;;;;;;;10.97;5.27;;;;;;;6.25;100.00;99441.41;5018479;28;20111;-69
2021/01/20 02:44:01;;;;;;;12.40;5.23;;;;;;;6.31;100.00;99444.00;5011452;28;20533;-68
2021/01/20 02:46:27;;;;;;;7.30;3.87;;;;;;;6.33;100.00;99444.88;5010835;28;20555;-68
2021/01/20 02:48:54;;;;;;;12.30;4.90;;;;;;;6.29;100.00;99447.47;5018716;28;20076;-68
2021/01/20 02:51:26;;;;;;;10.90;4.53;;;;;;;6.33;100.00;99439.69;5029281;28;20511;-67
2021/01/20 02:53:55;;;;;;;8.98;4.82;;;;;;;6.27;100.00;99424.09;5010283;28;20050;-68
2021/01/20 02:56:25;;;;;;;11.53;5.60;;;;;;;6.26;100.00;99443.13;5015077;28;20030;-69
2021/01/20 02:58:52;;;;;;;9.33;3.97;;;;;;;6.27;100.00;99439.69;5019331;28;20743;-70
2021/01/20 03:01:19;;;;;;;12.53;4.80;;;;;;;6.26;100.00;99431.91;5029232;28;20053;-69
2021/01/20 03:03:47;;;;;;;7.50;4.07;;;;;;;6.29;100.00;99431.88;5016596;28;21797;-69
2021/01/20 03:06:15;;;;;;;7.73;3.43;;;;;;;6.26;100.00;99431.91;5041250;28;20401;-69
2021/01/20 03:08:41;;;;;;;6.20;2.70;;;;;;;6.30;100.00;99424.13;5021529;28;20060;-68
2021/01/20 03:11:06;;;;;;;7.67;3.70;;;;;;;6.27;100.00;99424.09;5009724;28;20649;-68
2021/01/20 03:13:36;;;;;;;7.30;2.70;;;;;;;6.27;100.00;99424.09;5010196;28;20044;-68
2021/01/20 03:16:03;;;;;;;8.00;3.47;;;;;;;6.19;100.00;99431.06;5009500;28;20116;-70
2021/01/20 03:18:28;;;;;;;7.57;2.80;;;;;;;6.23;100.00;99418.94;5028667;28;20067;-68
2021/01/20 03:20:54;;;;;;;10.63;4.03;;;;;;;6.13;100.00;99425.84;5016699;28;20038;-69
2021/01/20 03:23:19;;;;;;;9.10;3.23;;;;;;;6.16;100.00;99425.84;5009394;28;20107;-68
2021/01/20 03:25:45;;;;;;;7.00;2.83;;;;;;;6.14;100.00;99423.25;5009268;28;20433;-69
2021/01/20 03:28:10;;;;;;;10.10;3.30;;;;;;;6.14;100.00;99427.59;5009990;28;20493;-68
2021/01/20 03:30:35;;;;;;;4.83;2.53;;;;;;;6.14;100.00;99427.59;5010136;28;20026;-69
2021/01/20 03:33:01;;;;;;;8.83;3.10;;;;;;;6.21;100.00;99424.13;5013610;28;20037;-69
2021/01/20 03:35:27;;;;;;;7.27;3.13;;;;;;;6.17;100.00;99412.00;5015844;28;20575;-68
2021/01/20 03:37:52;;;;;;;8.60;3.37;;;;;;;6.14;100.00;99419.81;5023582;28;20044;-70
2021/01/20 03:40:18;;;;;;;6.27;3.40;;;;;;;6.05;100.00;99417.22;5012092;28;20030;-69
2021/01/20 03:42:43;;;;;;;6.70;2.90;;;;;;;6.08;100.00;99417.22;5015669;28;20065;-69
2021/01/20 03:45:09;;;;;;;9.57;3.00;;;;;;;6.16;100.00;99402.50;5014268;28;20038;-69
2021/01/20 03:47:35;;;;;;;5.93;2.30;;;;;;;6.14;100.00;99412.00;5013634;28;20062;-69
2021/01/20 03:50:00;;;;;;;9.10;2.60;;;;;;;6.14;100.00;99399.03;5013887;28;20052;-68
2021/01/20 03:52:26;;;;;;;9.30;3.23;;;;;;;6.16;100.00;99394.72;5013358;28;20396;-69
2021/01/20 03:54:51;;;;;;;4.63;1.97;;;;;;;6.19;100.00;99379.16;5028023;28;20029;-70
2021/01/20 03:57:16;;;;;;;6.40;2.67;;;;;;;6.26;100.00;99379.97;5021739;28;20039;-69
2021/01/20 03:59:42;;;;;;;4.97;2.20;;;;;;;6.17;100.00;99391.25;5013821;28;20038;-68
2021/01/20 04:02:07;;;;;;;6.83;2.50;;;;;;;6.16;100.00;99384.31;5018694;28;20030;-69
2021/01/20 04:04:33;;;;;;;7.50;2.90;;;;;;;6.16;100.00;99379.13;5019625;28;20436;-69
2021/01/20 04:07:01;;;;;;;8.93;3.30;;;;;;;6.16;100.00;99379.13;5012803;28;20021;-70
2021/01/20 04:09:26;;;;;;;10.47;3.20;;;;;;;6.13;100.00;99373.97;5013237;28;20501;-67
2021/01/20 04:11:52;;;;;;;8.50;2.63;;;;;;;6.23;100.00;99377.41;5017023;28;20287;-69
2021/01/20 04:14:17;;;;;;;5.10;2.03;;;;;;;6.18;100.00;99372.22;5030647;28;20514;-69
2021/01/20 04:16:43;;;;;;;5.00;2.20;;;;;;;6.23;100.00;99380.00;5012322;28;20034;-69
2021/01/20 04:19:08;;;;;;;9.53;3.17;;;;;;;6.22;100.00;99381.72;5013051;28;20033;-70
2021/01/20 04:21:34;;;;;;;7.23;2.80;;;;;;;6.25;100.00;99370.47;5020330;28;20401;-70
2021/01/20 04:23:59;;;;;;;9.10;2.50;;;;;;;6.27;100.00;99356.63;5019218;28;20041;-69
2021/01/20 04:26:24;;;;;;;7.87;2.73;;;;;;;6.30;100.00;99333.25;5020856;28;20037;-68
2021/01/20 04:28:50;;;;;;;10.80;3.77;;;;;;;6.29;100.00;99365.25;5020972;28;20037;-71
2021/01/20 04:31:15;;;;;;;6.90;3.07;;;;;;;6.30;100.00;99369.59;5021118;28;20446;-69
2021/01/20 04:33:41;;;;;;;6.73;2.97;;;;;;;6.25;100.00;99373.94;5025754;28;20042;-69
2021/01/20 04:36:07;;;;;;;7.80;3.47;;;;;;;6.28;100.00;99363.53;5014748;28;20037;-69
2021/01/20 04:38:32;;;;;;;6.93;2.57;;;;;;;6.28;100.00;99362.66;5013496;28;20026;-70
2021/01/20 04:40:58;;;;;;;7.70;3.30;;;;;;;6.27;100.00;99369.59;5012302;28;20026;-69
2021/01/20 04:43:24;;;;;;;10.27;3.17;;;;;;;6.21;100.00;99366.16;5012717;28;20034;-68
2021/01/20 04:45:51;;;;;;;9.63;2.93;;;;;;;6.36;100.00;99364.38;5011964;28;20037;-68
2021/01/20 04:48:17;;;;;;;4.93;2.37;;;;;;;6.38;100.00;99367.81;5012624;28;20109;-69
2021/01/20 04:50:43;;;;;;;8.57;3.50;;;;;;;6.31;100.00;99358.34;5016194;28;20167;-70
2021/01/20 04:53:13;;;;;;;12.63;4.17;;;;;;;6.33;100.00;99356.59;5013530;28;20052;-71
2021/01/20 04:55:41;;;;;;;13.17;3.37;;;;;;;6.31;100.00;99347.09;5011638;28;20026;-69
2021/01/20 04:58:12;;;;;;;6.53;3.23;;;;;;;6.32;100.00;99349.69;5012786;28;20022;-69
2021/01/20 05:00:39;;;;;;;8.07;4.00;;;;;;;6.40;100.00;99342.72;5013552;28;20030;-69
2021/01/20 05:03:06;;;;;;;9.93;3.67;;;;;;;6.39;100.00;99350.50;5019844;28;20031;-69
2021/01/20 05:05:32;;;;;;;10.20;3.40;;;;;;;6.39;100.00;99351.38;5015342;28;20092;-69
2021/01/20 05:07:57;;;;;;;11.87;3.40;;;;;;;6.39;100.00;99345.31;5029823;28;20035;-69
2021/01/20 05:10:23;;;;;;;8.50;3.50;;;;;;;6.40;100.00;99345.31;5017324;28;20026;-68
2021/01/20 05:12:48;;;;;;;6.07;3.07;;;;;;;6.42;100.00;99345.31;5011860;28;20390;-69
2021/01/20 05:15:17;;;;;;;7.17;3.13;;;;;;;6.35;100.00;99339.28;5012423;28;20045;-68
2021/01/20 05:18:02;;;;;;;6.60;3.20;;;;;;;6.42;100.00;99334.91;5011830;28;20056;-68
2021/01/20 05:20:31;;;;;;;8.97;3.73;;;;;;;6.41;100.00;99335.78;5011250;28;20038;-70
2021/01/20 05:23:05;;;;;;;11.47;3.70;;;;;;;6.34;100.00;99326.31;5019142;28;20034;-69
2021/01/20 05:25:56;;;;;;;6.63;3.23;;;;;;;6.35;100.00;99333.25;5019949;28;20500;-68
2021/01/20 05:28:24;;;;;;;9.63;4.13;;;;;;;6.33;100.00;99320.25;5012323;28;20288;-69
2021/01/20 05:30:58;;;;;;;8.13;3.70;;;;;;;6.43;100.00;99323.69;5011259;28;20455;-68
2021/01/20 05:33:36;;;;;;;9.57;3.67;;;;;;;6.37;100.00;99315.91;5026418;28;20084;-69
2021/01/20 05:36:05;;;;;;;9.27;4.20;;;;;;;6.36;100.00;99317.66;5022739;28;20316;-68
2021/01/20 05:38:37;;;;;;;9.17;4.00;;;;;;;6.27;100.00;99315.06;5012145;28;20461;-69
2021/01/20 05:41:19;;;;;;;6.97;2.90;;;;;;;6.22;100.00;99306.47;5011506;28;20037;-69
2021/01/20 05:43:46;;;;;;;6.57;3.03;;;;;;;6.21;100.00;99309.94;5011581;28;20107;-69
2021/01/20 05:46:11;;;;;;;7.90;3.93;;;;;;;6.14;100.00;99309.06;5011559;28;20037;-70
2021/01/20 05:48:47;;;;;;;7.33;3.37;;;;;;;6.18;100.00;99302.16;5011873;28;20026;-69
2021/01/20 05:51:13;;;;;;;8.17;3.73;;;;;;;6.22;100.00;99301.28;5010729;28;20030;-70
2021/01/20 05:53:57;;;;;;;7.30;3.50;;;;;;;6.17;100.00;99296.06;5011261;28;20268;-68
2021/01/20 05:56:27;;;;;;;7.87;3.10;;;;;;;6.22;100.00;99306.47;5011030;28;20080;-68
2021/01/20 05:58:53;;;;;;;8.40;3.63;;;;;;;6.21;100.00;99299.53;5011145;28;20632;-69
2021/01/20 06:01:20;;;;;;;7.70;3.50;;;;;;;6.24;100.00;99288.28;5013958;28;20277;-69
2021/01/20 06:03:46;;;;;;;6.43;2.90;;;;;;;6.31;100.00;99300.38;5011039;28;20107;-68
2021/01/20 06:06:13;;;;;;;8.43;3.57;;;;;;;6.28;100.00;99290.84;5020611;28;20749;-68
2021/01/20 06:08:39;;;;;;;7.40;3.37;;;;;;;6.30;100.00;99289.13;5015831;28;20377;-69
2021/01/20 06:11:05;;;;;;;7.23;3.60;;;;;;;6.25;100.00;99290.88;5020512;28;20070;-69
2021/01/20 06:13:32;;;;;;;6.57;3.07;;;;;;;6.19;100.00;99290.03;5011370;28;20026;-68
2021/01/20 06:16:00;;;;;;;8.97;3.53;;;;;;;6.23;100.00;99277.03;5016486;28;20029;-69
2021/01/20 06:18:29;;;;;;;10.90;3.70;;;;;;;6.31;100.00;99277.88;5026243;28;20280;-69
2021/01/20 06:20:55;;;;;;;7.60;3.10;;;;;;;6.34;100.00;99270.06;5010257;28;20408;-68
2021/01/20 06:23:27;;;;;;;6.83;2.63;;;;;;;6.49;100.00;99274.31;5011146;28;20130;-69
2021/01/20 06:26:03;;;;;;;8.10;3.20;;;;;;;6.44;100.00;99278.69;5025040;28;20036;-70
2021/01/20 06:28:30;;;;;;;6.57;3.00;;;;;;;6.50;100.00;99285.56;5010926;28;20079;-68
2021/01/20 06:30:56;;;;;;;8.40;3.13;;;;;;;6.57;100.00;99272.56;5009846;28;20029;-70
2021/01/20 06:33:28;;;;;;;5.67;2.03;;;;;;;6.56;100.00;99275.16;5010783;28;20018;-69
2021/01/20 06:35:54;;;;;;;6.80;2.60;;;;;;;6.63;100.00;99272.50;5024223;28;20034;-69
2021/01/20 06:38:28;;;;;;;6.20;2.93;;;;;;;6.69;100.00;99267.28;5010776;28;20047;-69
2021/01/20 06:41:07;;;;;;;6.27;2.53;;;;;;;6.74;100.00;99264.66;5024949;28;20042;-69
2021/01/20 06:43:39;;;;;;;7.67;2.83;;;;;;;6.78;100.00;99250.75;5014191;28;20042;-69
2021/01/20 06:46:40;;;;;;;;;;;;;;;6.81;100.00;99258.56;5010428;28;20485;-69
2021/01/20 06:49:06;;;;;;;7.47;2.30;;;;;;;6.97;100.00;99248.91;5008659;28;20113;-69
2021/01/20 06:51:33;;;;;;;10.20;2.37;;;;;;;6.95;100.00;99248.06;5008975;28;20049;-69
2021/01/20 06:54:14;;;;;;;9.57;2.60;;;;;;;7.01;100.00;99256.66;5010414;28;20038;-70
2021/01/20 06:56:52;;;;;;;5.40;2.60;;;;;;;7.09;100.00;99260.94;5009985;28;20037;-69
2021/01/20 06:59:33;;;;;;;6.23;2.50;;;;;;;7.11;100.00;99256.59;5010618;28;20041;-69
2021/01/20 07:02:04;;;;;;;6.03;2.43;;;;;;;7.14;100.00;99265.22;5009558;28;20044;-69
2021/01/20 07:04:38;;;;;;;4.23;1.87;;;;;;;7.30;100.00;99265.97;5011078;28;20057;-68
2021/01/20 07:07:07;;;;;;;4.93;2.43;;;;;;;7.26;100.00;99265.13;5010337;28;20053;-69
2021/01/20 07:09:51;;;;;;;4.97;2.80;;;;;;;7.41;99.86;99264.13;5010788;28;20088;-68
2021/01/20 07:12:21;;;;;;;8.30;2.40;;;;;;;7.38;99.83;99266.75;5009777;28;20394;-68
2021/01/20 07:14:48;;;;;;;3.67;1.50;;;;;;;7.41;99.60;99247.69;5010189;28;20394;-69
2021/01/20 07:17:14;;;;;;;4.23;1.50;;;;;;;7.47;98.36;99258.88;5009842;28;20105;-68
2021/01/20 07:19:40;;;;;;;4.77;2.03;;;;;;;7.42;99.16;99255.47;5010086;28;20038;-68
2021/01/20 07:22:06;;;;;;;5.33;2.07;;;;;;;7.39;99.44;99259.81;5009817;28;20058;-69
2021/01/20 07:24:32;;;;;;;4.20;1.70;;;;;;;7.54;97.27;99250.16;5010130;28;20088;-69
2021/01/20 07:27:09;;;;;;;8.93;1.93;;;;;;;7.54;97.50;99244.09;5009555;28;20117;-68
2021/01/20 07:29:34;;;;;;;7.13;2.80;;;;;;;7.44;98.36;99243.31;5010643;28;20048;-68
2021/01/20 07:32:01;;;;;;;4.50;2.10;;;;;;;7.54;97.06;99250.16;5018039;28;20539;-67
2021/01/20 07:34:43;;;;;;;4.73;2.00;;;;;;;7.56;96.31;99252.72;5029830;28;20057;-68
2021/01/20 07:37:14;;;;;;;2.17;1.20;;;;;;;7.62;95.81;99243.09;5029539;28;20029;-68
2021/01/20 07:39:40;;;;;;;4.70;2.13;;;;;;;7.61;96.08;99246.59;5029751;28;20032;-69
2021/01/20 07:42:06;;;;;;;5.27;1.97;;;;;;;7.61;95.89;99241.38;5029205;28;20029;-69
2021/01/20 07:44:33;;;;;;;5.77;2.37;;;;;;;7.63;95.79;99239.66;5029761;28;20029;-68
2021/01/20 07:47:06;;;;;;;5.57;2.27;;;;;;;7.71;93.57;99247.34;5029384;28;20048;-68
2021/01/20 07:49:35;;;;;;;5.03;2.33;;;;;;;7.67;94.08;99239.63;5030213;28;20025;-69
2021/01/20 07:52:03;;;;;;;5.10;1.70;;;;;;;7.68;93.98;99255.19;5029060;28;20083;-67
2021/01/20 07:54:37;;;;;;;5.87;2.27;;;;;;;7.76;93.07;99249.94;5029987;28;20036;-68
2021/01/20 07:57:05;;;;;;;9.33;2.27;;;;;;;7.72;93.65;99243.00;5029967;28;20029;-68
2021/01/20 07:59:33;;;;;;;18.20;2.40;;;;;;;7.79;92.30;99239.47;5030293;28;20440;-69
2021/01/20 08:02:06;;;;;;;7.77;1.90;;;;;;;7.81;91.99;99242.94;5029563;28;20544;-68
2021/01/20 08:04:32;;;;;;;3.67;1.60;;;;;;;7.88;91.10;99244.59;5029569;28;20071;-70
2021/01/20 08:06:57;;;;;;;4.53;2.07;;;;;;;7.86;92.08;99254.13;5029709;28;20021;-68
2021/01/20 08:09:46;;;;;;;6.33;1.37;;;;;;;7.97;90.30;99252.28;5030436;28;20021;-68
2021/01/20 08:12:22;;;;;;;4.43;1.90;;;;;;;7.97;90.65;99260.09;5029288;28;20030;-68
2021/01/20 08:14:49;;;;;;;3.07;1.27;;;;;;;8.05;89.68;99237.44;5029652;28;20022;-68
2021/01/20 08:17:16;;;;;;;3.43;1.37;;;;;;;8.01;90.20;99259.19;5029022;28;20116;-68
2021/01/20 08:19:42;;;;;;;3.87;1.40;;;;;;;7.99;90.60;99263.53;5029788;28;20034;-68
2021/01/20 08:22:15;;;;;;;4.33;1.73;;;;;;;8.02;90.21;99253.09;5028924;28;20499;-67
2021/01/20 08:24:45;;;;;;;4.50;1.80;;;;;;;8.04;89.91;99255.69;5029414;28;20515;-67
2021/01/20 08:27:11;;;;;;;4.77;2.03;;;;;;;8.05;89.75;99257.41;5028852;28;20021;-68
2021/01/20 08:29:54;;;;;;;3.13;1.37;;;;;;;8.09;89.13;99249.53;5029533;28;20025;-67
2021/01/20 08:32:20;;;;;;;4.45;1.95;;;;;;;8.12;88.03;99246.91;5031380;28;20455;-68
2021/01/20 08:34:49;;;;;;;4.17;1.60;;;;;;;8.08;88.67;99254.75;5033029;28;20029;-67
2021/01/20 08:37:35;;;;;;;4.50;1.73;;;;;;;8.06;88.96;99253.91;5032540;28;20018;-69
2021/01/20 08:40:03;;;;;;;5.67;2.30;;;;;;;8.02;88.56;99247.91;5032745;28;20492;-68
2021/01/20 08:42:38;;;;;;;5.33;1.83;;;;;;;8.07;88.26;99251.28;5032241;28;20036;-68
2021/01/20 08:45:10;;;;;;;4.60;1.90;;;;;;;8.05;88.04;99254.78;5032637;28;20029;-68
2021/01/20 08:47:49;;;;;;;4.10;1.77;;;;;;;8.06;88.70;99254.78;5032451;28;20499;-68
2021/01/20 08:50:20;;;;;;;4.60;1.87;;;;;;;8.07;87.87;99248.69;5032940;28;20030;-68
2021/01/20 08:52:49;;;;;;;5.47;1.70;;;;;;;8.12;88.00;99254.72;5031852;28;20464;-68
2021/01/20 08:55:50;;;;;;;3.63;1.40;;;;;;;8.13;87.94;99245.16;5032748;28;20029;-68
2021/01/20 08:58:28;;;;;;;3.97;1.70;;;;;;;8.10;88.04;99246.03;5032020;28;20053;-68
2021/01/20 09:00:54;;;;;;;6.33;2.00;;;;;;;8.09;88.59;99233.91;5032447;28;20133;-68
2021/01/20 09:03:27;;;;;;;9.60;1.57;;;;;;;8.11;88.06;99237.34;5031794;28;20407;-67
2021/01/20 09:05:54;;;;;;;4.60;1.90;;;;;;;8.18;88.22;99228.59;5032346;28;20121;-67
2021/01/20 09:08:21;;;;;;;3.93;1.50;;;;;;;8.17;87.82;99229.47;5031777;28;20104;-68
2021/01/20 09:10:47;;;;;;;3.70;1.53;;;;;;;8.16;87.27;99230.34;5032409;28;20049;-68
2021/01/20 09:13:14;;;;;;;6.63;2.23;;;;;;;8.13;87.92;99230.41;5031589;28;20033;-68
2021/01/20 09:15:39;;;;;;;3.27;1.43;;;;;;;8.16;87.62;99227.75;5032033;28;20036;-68
2021/01/20 09:18:08;;;;;;;5.60;1.50;;;;;;;8.15;87.83;99223.44;5031593;28;20276;-68
2021/01/20 09:20:35;;;;;;;4.00;1.30;;;;;;;8.18;87.46;99223.38;5031960;28;20481;-68
2021/01/20 09:23:01;;;;;;;3.20;1.17;;;;;;;8.22;86.78;99229.41;5031187;28;20021;-68
2021/01/20 09:25:27;;;;;;;4.67;1.67;;;;;;;8.25;86.75;99215.50;5032210;28;20099;-68
2021/01/20 09:27:52;;;;;;;4.03;1.60;;;;;;;8.25;87.24;99223.31;5031624;28;20030;-68
2021/01/20 09:30:18;;;;;;;3.77;1.63;;;;;;;8.28;87.78;99229.34;5032088;28;20067;-67
2021/01/20 09:32:43;;;;;;;4.27;1.50;;;;;;;8.32;87.21;99236.22;5031257;28;20025;-68
2021/01/20 09:35:11;;;;;;;6.97;1.73;;;;;;;8.36;87.23;99247.47;5031691;28;20112;-68
2021/01/20 09:37:37;;;;;;;3.63;1.50;;;;;;;8.38;86.88;99240.53;5031096;28;20021;-69
2021/01/20 09:40:07;;;;;;;3.97;1.60;;;;;;;8.37;88.13;99254.44;5032037;28;20567;-68
2021/01/20 09:42:32;;;;;;;3.63;1.80;;;;;;;8.39;87.36;99232.69;5031406;28;20079;-69
2021/01/20 09:44:58;;;;;;;3.70;1.53;;;;;;;8.42;88.02;99226.59;5031313;28;20033;-68
2021/01/20 09:47:23;;;;;;;5.10;1.60;;;;;;;8.40;87.89;99233.56;5031089;28;20025;-68
2021/01/20 09:49:49;;;;;;;4.20;1.40;;;;;;;8.43;87.74;99234.38;5031879;28;20021;-68
2021/01/20 09:52:15;;;;;;;4.20;1.30;;;;;;;8.47;87.67;99245.59;5031536;28;20030;-67
2021/01/20 09:54:42;;;;;;;5.03;1.40;;;;;;;8.41;89.03;99236.13;5031257;28;20497;-68
2021/01/20 09:57:07;;;;;;;3.13;1.40;;;;;;;8.48;87.78;99231.72;5030727;28;20056;-68
2021/01/20 09:59:33;;;;;;;4.07;1.50;;;;;;;8.46;88.40;99243.88;5031186;28;20088;-68
2021/01/20 10:01:58;;;;;;;4.97;1.73;;;;;;;8.49;88.75;99241.25;5031332;28;20021;-68
2021/01/20 10:04:23;;;;;;;2.90;1.20;;;;;;;8.59;88.62;99236.75;5031332;28;20171;-68
2021/01/20 10:06:51;;;;;;;4.83;1.87;;;;;;;8.64;88.11;99243.63;5031347;28;20112;-68
2021/01/20 10:09:16;;;;;;;3.83;1.60;;;;;;;8.62;89.16;99240.19;5031177;28;20017;-68
2021/01/20 10:11:43;;;;;;;5.17;1.43;;;;;;;8.71;88.86;99240.03;5030764;28;20112;-68
2021/01/20 10:14:08;;;;;;;3.87;1.50;;;;;;;8.70;89.82;99233.13;5031264;28;20392;-68
2021/01/20 10:16:34;;;;;;;3.47;1.67;;;;;;;8.64;90.36;99234.97;5030706;28;20036;-69
2021/01/20 10:18:59;;;;;;;3.57;1.63;;;;;;;8.65;90.66;99234.06;5030976;28;20056;-68
2021/01/20 10:21:24;;;;;;;3.47;1.57;;;;;;;8.68;91.05;99237.50;5031005;28;20029;-68
2021/01/20 10:23:50;;;;;;;4.73;1.50;;;;;;;8.67;91.15;99227.94;5030760;28;20041;-69
2021/01/20 10:26:15;;;;;;;3.40;1.03;;;;;;;8.72;91.68;99214.84;5030830;28;20436;-68
2021/01/20 10:28:43;;;;;;;4.17;1.47;;;;;;;8.69;91.99;99214.91;5030149;28;20057;-68
2021/01/20 10:31:08;;;;;;;3.60;1.40;;;;;;;8.70;91.92;99212.25;5031031;28;20511;-69
2021/01/20 10:33:34;;;;;;;3.10;1.20;;;;;;;8.69;92.27;99205.34;5030595;28;20116;-67
2021/01/20 10:35:59;;;;;;;4.00;1.33;;;;;;;8.76;91.83;99201.75;5030848;28;20648;-69
2021/01/20 10:38:24;;;;;;;2.13;1.03;;;;;;;8.94;90.90;99200.59;5030853;28;20112;-67
2021/01/20 10:40:50;;;;;;;2.73;1.20;;;;;;;9.04;91.51;99190.88;5030529;28;20040;-68
2021/01/20 10:43:15;;;;;;;5.53;1.60;;;;;;;9.11;91.15;99187.28;5030501;28;20404;-68
2021/01/20 10:45:41;;;;;;;4.60;1.60;;;;;;;9.22;90.32;99195.81;5030500;28;20049;-68
2021/01/20 10:48:06;;;;;;;3.63;1.43;;;;;;;9.22;90.30;99200.16;5030794;28;20527;-68
2021/01/20 10:50:32;;;;;;;3.50;1.30;;;;;;;9.20;90.34;99196.69;5030244;28;20611;-68
2021/01/20 10:52:57;;;;;;;4.53;1.33;;;;;;;9.24;90.05;99193.16;5029219;28;20032;-68
2021/01/20 10:55:22;;;;;;;3.90;1.30;;;;;;;9.19;90.94;99194.97;5029771;28;20121;-69
2021/01/20 10:57:48;;;;;;;2.67;1.40;;;;;;;9.19;89.77;99190.63;5030876;28;20547;-68
2021/01/20 11:00:13;;;;;;;3.07;1.10;;;;;;;9.17;91.46;99200.22;5030508;28;20075;-68
2021/01/20 11:02:39;;;;;;;5.00;1.47;;;;;;;9.19;91.20;99190.63;5030445;28;20033;-70
2021/01/20 11:05:05;;;;;;;3.17;1.27;;;;;;;9.24;90.45;99172.28;5030678;28;20234;-68
2021/01/20 11:07:30;;;;;;;4.03;1.30;;;;;;;9.20;90.84;99171.47;5030250;28;20477;-68
2021/01/20 11:09:57;;;;;;;3.00;1.30;;;;;;;9.19;91.37;99174.97;5030329;28;20163;-68
2021/01/20 11:12:22;;;;;;;2.43;1.00;;;;;;;9.25;90.77;99169.66;5029726;28;20033;-68
2021/01/20 11:14:48;;;;;;;5.53;1.37;;;;;;;9.25;90.88;99174.00;5030432;28;20083;-66
2021/01/20 11:17:13;;;;;;;3.20;1.43;;;;;;;9.32;90.19;99173.84;5029190;28;20034;-67
2021/01/20 11:19:39;;;;;;;2.17;0.90;;;;;;;9.35;89.17;99166.00;5030652;28;20543;-67
2021/01/20 11:22:07;;;;;;;4.97;1.27;;;;;;;9.34;90.22;99163.41;5029843;28;20034;-67
2021/01/20 11:24:33;;;;;;;4.73;1.40;;;;;;;9.44;89.25;99161.47;5030195;28;20040;-66
2021/01/20 11:26:58;;;;;;;1.77;0.70;;;;;;;9.50;87.92;99148.31;5030247;28;20038;-67
2021/01/20 11:29:24;;;;;;;2.57;1.00;;;;;;;9.52;89.22;99156.97;5030013;28;20140;-67
2021/01/20 11:31:50;;;;;;;3.90;1.40;;;;;;;9.56;89.41;99169.06;5029683;28;20142;-68
2021/01/20 11:34:15;;;;;;;2.37;0.80;;;;;;;9.60;87.25;99155.09;5029610;28;20104;-69
2021/01/20 11:36:41;;;;;;;2.57;1.10;;;;;;;9.59;87.44;99145.53;5030051;28;20124;-67
2021/01/20 11:39:06;;;;;;;2.57;1.00;;;;;;;9.63;87.67;99149.81;5029097;28;20507;-67